sensor_id;sensor_type;location;lat;lon;timestamp;pressure;altitude;pressure_sealevel;temperature;humidity
6144;BME280;3103;49.492;8.474;2023-02-03T00:02:00;101743.41;;;8.22;80.19
6144;BME280;3103;49.492;8.474;2023-02-03T00:04:27;101753.97;;;8.30;80.25
6144;BME280;3103;49.492;8.474;2023-02-03T00:06:54;101745.69;;;8.25;79.81
6144;BME280;3103;49.492;8.474;2023-02-03T00:09:21;101743.41;;;8.22;80.62
6144;BME280;3103;49.492;8.474;2023-02-03T00:11:48;101753.53;;;8.26;80.21
6144;BME280;3103;49.492;8.474;2023-02-03T00:14:15;101753.09;;;8.23;80.79
6144;BME280;3103;49.492;8.474;2023-02-03T00:16:42;101753.06;;;8.38;80.16
6144;BME280;3103;49.492;8.474;2023-02-03T00:19:09;101752.03;;;8.39;80.17
6144;BME280;3103;49.492;8.474;2023-02-03T00:21:36;101749.34;;;8.39;79.90
6144;BME280;3103;49.492;8.474;2023-02-03T00:24:03;101746.06;;;8.37;80.13
6144;BME280;3103;49.492;8.474;2023-02-03T00:26:29;101739.91;;;8.21;80.60
6144;BME280;3103;49.492;8.474;2023-02-03T00:28:58;101750.31;;;8.31;80.97
6144;BME280;3103;49.492;8.474;2023-02-03T00:31:25;101760.56;;;8.27;81.02
6144;BME280;3103;49.492;8.474;2023-02-03T00:33:53;101765.16;;;8.33;80.77
6144;BME280;3103;49.492;8.474;2023-02-03T00:36:21;101763.50;;;8.32;80.61
6144;BME280;3103;49.492;8.474;2023-02-03T00:38:49;101753.25;;;8.36;80.72
6144;BME280;3103;49.492;8.474;2023-02-03T00:41:16;101743.94;;;8.32;80.40
6144;BME280;3103;49.492;8.474;2023-02-03T00:43:43;101733.28;;;8.39;80.25
6144;BME280;3103;49.492;8.474;2023-02-03T00:46:10;101719.50;;;8.42;80.50
6144;BME280;3103;49.492;8.474;2023-02-03T00:48:37;101715.28;;;8.32;80.45
6144;BME280;3103;49.492;8.474;2023-02-03T00:51:04;101716.44;;;8.23;80.94
6144;BME280;3103;49.492;8.474;2023-02-03T00:53:31;101719.28;;;8.37;80.57
6144;BME280;3103;49.492;8.474;2023-02-03T00:55:58;101721.94;;;8.37;80.13
6144;BME280;3103;49.492;8.474;2023-02-03T00:58:24;101728.16;;;8.44;79.86
6144;BME280;3103;49.492;8.474;2023-02-03T01:00:53;101734.31;;;8.38;80.03
6144;BME280;3103;49.492;8.474;2023-02-03T01:03:20;101740.06;;;8.35;80.16
6144;BME280;3103;49.492;8.474;2023-02-03T01:05:47;101747.13;;;8.42;79.64
6144;BME280;3103;49.492;8.474;2023-02-03T01:08:14;101751.84;;;8.40;79.98
6144;BME280;3103;49.492;8.474;2023-02-03T01:10:41;101747.78;;;8.29;79.87
6144;BME280;3103;49.492;8.474;2023-02-03T01:13:08;101754.63;;;8.32;80.32
6144;BME280;3103;49.492;8.474;2023-02-03T01:15:35;101753.72;;;8.25;80.33
6144;BME280;3103;49.492;8.474;2023-02-03T01:18:02;101730.63;;;8.39;80.25
6144;BME280;3103;49.492;8.474;2023-02-03T01:20:28;101727.19;;;8.45;79.97
6144;BME280;3103;49.492;8.474;2023-02-03T01:22:57;101730.34;;;8.33;80.61
6144;BME280;3103;49.492;8.474;2023-02-03T01:25:23;101709.88;;;8.26;80.86
6144;BME280;3103;49.492;8.474;2023-02-03T01:27:50;101697.69;;;8.23;80.89
6144;BME280;3103;49.492;8.474;2023-02-03T01:30:17;101692.34;;;8.23;81.11
6144;BME280;3103;49.492;8.474;2023-02-03T01:32:45;101693.41;;;8.29;81.28
6144;BME280;3103;49.492;8.474;2023-02-03T01:35:12;101685.97;;;8.24;81.04
6144;BME280;3103;49.492;8.474;2023-02-03T01:37:39;101674.13;;;8.12;81.66
6144;BME280;3103;49.492;8.474;2023-02-03T01:40:06;101663.69;;;8.17;81.70
6144;BME280;3103;49.492;8.474;2023-02-03T01:42:33;101652.38;;;8.22;81.31
6144;BME280;3103;49.492;8.474;2023-02-03T01:45:00;101661.84;;;8.18;81.07
6144;BME280;3103;49.492;8.474;2023-02-03T01:47:32;101676.09;;;8.25;81.45
6144;BME280;3103;49.492;8.474;2023-02-03T01:50:24;101693.97;;;8.18;81.59
6144;BME280;3103;49.492;8.474;2023-02-03T01:52:56;101703.06;;;8.23;81.54
6144;BME280;3103;49.492;8.474;2023-02-03T01:55:27;101693.13;;;8.17;82.03
6144;BME280;3103;49.492;8.474;2023-02-03T01:58:10;101682.16;;;8.12;82.00
6144;BME280;3103;49.492;8.474;2023-02-03T02:00:38;101669.41;;;8.14;81.85
6144;BME280;3103;49.492;8.474;2023-02-03T02:03:06;101682.47;;;8.24;81.85
6144;BME280;3103;49.492;8.474;2023-02-03T02:05:41;101679.19;;;8.28;81.45
6144;BME280;3103;49.492;8.474;2023-02-03T02:08:12;101668.38;;;8.37;80.84
6144;BME280;3103;49.492;8.474;2023-02-03T02:10:40;101655.56;;;8.32;80.97
6144;BME280;3103;49.492;8.474;2023-02-03T02:13:07;101656.75;;;8.29;80.88
6144;BME280;3103;49.492;8.474;2023-02-03T02:15:42;101656.31;;;8.26;81.33
6144;BME280;3103;49.492;8.474;2023-02-03T02:18:39;101658.03;;;8.33;81.07
6144;BME280;3103;49.492;8.474;2023-02-03T02:35:00;101640.78;;;8.15;82.70
6144;BME280;3103;49.492;8.474;2023-02-03T02:37:52;101641.44;;;8.17;82.30
6144;BME280;3103;49.492;8.474;2023-02-03T02:40:48;101636.25;;;8.15;82.20
6144;BME280;3103;49.492;8.474;2023-02-03T02:44:21;101635.63;;;8.13;82.65
6144;BME280;3103;49.492;8.474;2023-02-03T02:46:23;101624.09;;;8.13;82.35
6144;BME280;3103;49.492;8.474;2023-02-03T02:51:28;101618.91;;;8.04;83.21
6144;BME280;3103;49.492;8.474;2023-02-03T02:53:58;101644.34;;;8.22;82.14
6144;BME280;3103;49.492;8.474;2023-02-03T02:56:28;101644.47;;;8.14;82.54
6144;BME280;3103;49.492;8.474;2023-02-03T02:58:58;101661.75;;;8.11;82.60
6144;BME280;3103;49.492;8.474;2023-02-03T03:01:27;101662.00;;;8.16;81.83
6144;BME280;3103;49.492;8.474;2023-02-03T03:03:54;101660.84;;;8.25;81.69
6144;BME280;3103;49.492;8.474;2023-02-03T03:06:26;101667.66;;;8.28;81.05
6144;BME280;3103;49.492;8.474;2023-02-03T03:08:59;101673.94;;;8.35;81.19
6144;BME280;3103;49.492;8.474;2023-02-03T03:11:33;101676.78;;;8.33;80.99
6144;BME280;3103;49.492;8.474;2023-02-03T03:14:05;101690.94;;;8.27;81.37
6144;BME280;3103;49.492;8.474;2023-02-03T03:16:33;101696.56;;;8.32;81.02
6144;BME280;3103;49.492;8.474;2023-02-03T03:19:09;101704.47;;;8.19;81.69
6144;BME280;3103;49.492;8.474;2023-02-03T03:21:43;101706.16;;;8.27;81.39
6144;BME280;3103;49.492;8.474;2023-02-03T03:24:16;101723.34;;;8.32;81.50
6144;BME280;3103;49.492;8.474;2023-02-03T03:26:48;101729.34;;;8.35;81.41
6144;BME280;3103;49.492;8.474;2023-02-03T03:29:27;101735.13;;;8.38;81.27
6144;BME280;3103;49.492;8.474;2023-02-03T03:31:55;101719.34;;;8.28;81.55
6144;BME280;3103;49.492;8.474;2023-02-03T03:34:22;101718.16;;;8.31;81.75
6144;BME280;3103;49.492;8.474;2023-02-03T03:37:10;101714.94;;;8.36;81.41
6144;BME280;3103;49.492;8.474;2023-02-03T03:39:52;101711.59;;;8.33;81.58
6144;BME280;3103;49.492;8.474;2023-02-03T03:45:18;101694.84;;;8.46;81.07
6144;BME280;3103;49.492;8.474;2023-02-03T03:50:24;101688.38;;;8.41;81.54
6144;BME280;3103;49.492;8.474;2023-02-03T03:52:54;101675.44;;;8.44;81.12
6144;BME280;3103;49.492;8.474;2023-02-03T03:55:23;101680.03;;;8.50;80.94
6144;BME280;3103;49.492;8.474;2023-02-03T03:58:00;101683.56;;;8.57;80.69
6144;BME280;3103;49.492;8.474;2023-02-03T04:00:31;101665.63;;;8.58;80.43
6144;BME280;3103;49.492;8.474;2023-02-03T04:03:04;101677.38;;;8.57;80.46
6144;BME280;3103;49.492;8.474;2023-02-03T04:05:33;101663.56;;;8.53;80.81
6144;BME280;3103;49.492;8.474;2023-02-03T04:08:00;101654.91;;;8.51;80.90
6144;BME280;3103;49.492;8.474;2023-02-03T04:10:33;101666.63;;;8.50;81.14
6144;BME280;3103;49.492;8.474;2023-02-03T04:13:00;101658.78;;;8.49;80.66
6144;BME280;3103;49.492;8.474;2023-02-03T04:15:27;101673.22;;;8.48;81.07
6144;BME280;3103;49.492;8.474;2023-02-03T04:17:54;101663.25;;;8.42;80.51
6144;BME280;3103;49.492;8.474;2023-02-03T04:20:23;101676.31;;;8.51;80.72
6144;BME280;3103;49.492;8.474;2023-02-03T04:22:51;101660.22;;;8.45;80.25
6144;BME280;3103;49.492;8.474;2023-02-03T04:25:17;101650.38;;;8.52;80.50
6144;BME280;3103;49.492;8.474;2023-02-03T04:27:44;101658.41;;;8.52;80.08
6144;BME280;3103;49.492;8.474;2023-02-03T04:30:12;101651.16;;;8.46;80.11
6144;BME280;3103;49.492;8.474;2023-02-03T04:32:39;101653.00;;;8.45;79.62
6144;BME280;3103;49.492;8.474;2023-02-03T04:35:07;101654.47;;;8.48;79.65
6144;BME280;3103;49.492;8.474;2023-02-03T04:37:33;101669.50;;;8.49;79.20
6144;BME280;3103;49.492;8.474;2023-02-03T04:40:00;101682.38;;;8.60;79.27
6144;BME280;3103;49.492;8.474;2023-02-03T04:42:28;101698.81;;;8.57;79.19
6144;BME280;3103;49.492;8.474;2023-02-03T04:44:55;101680.88;;;8.57;79.12
6144;BME280;3103;49.492;8.474;2023-02-03T04:47:22;101668.78;;;8.61;78.48
6144;BME280;3103;49.492;8.474;2023-02-03T04:49:48;101684.16;;;8.53;78.35
6144;BME280;3103;49.492;8.474;2023-02-03T04:52:15;101688.97;;;8.64;77.82
6144;BME280;3103;49.492;8.474;2023-02-03T04:54:42;101681.97;;;8.63;77.99
6144;BME280;3103;49.492;8.474;2023-02-03T04:57:08;101675.34;;;8.59;78.02
6144;BME280;3103;49.492;8.474;2023-02-03T04:59:35;101669.59;;;8.62;77.66
6144;BME280;3103;49.492;8.474;2023-02-03T05:02:02;101663.22;;;8.63;77.54
6144;BME280;3103;49.492;8.474;2023-02-03T05:04:33;101666.91;;;8.62;77.24
6144;BME280;3103;49.492;8.474;2023-02-03T05:07:00;101670.22;;;8.64;77.21
6144;BME280;3103;49.492;8.474;2023-02-03T05:09:27;101662.31;;;8.56;77.31
6144;BME280;3103;49.492;8.474;2023-02-03T05:11:53;101652.00;;;8.53;77.73
6144;BME280;3103;49.492;8.474;2023-02-03T05:14:20;101655.72;;;8.52;77.62
6144;BME280;3103;49.492;8.474;2023-02-03T05:16:47;101669.34;;;8.57;77.59
6144;BME280;3103;49.492;8.474;2023-02-03T05:19:13;101670.72;;;8.46;77.75
6144;BME280;3103;49.492;8.474;2023-02-03T05:21:40;101682.06;;;8.48;77.77
6144;BME280;3103;49.492;8.474;2023-02-03T05:24:07;101680.06;;;8.57;77.39
6144;BME280;3103;49.492;8.474;2023-02-03T05:26:34;101680.72;;;8.59;77.15
6144;BME280;3103;49.492;8.474;2023-02-03T05:29:02;101671.25;;;8.63;76.97
6144;BME280;3103;49.492;8.474;2023-02-03T05:31:28;101687.75;;;8.67;77.09
6144;BME280;3103;49.492;8.474;2023-02-03T05:33:55;101693.94;;;8.67;77.09
6144;BME280;3103;49.492;8.474;2023-02-03T05:36:22;101685.56;;;8.77;76.36
6144;BME280;3103;49.492;8.474;2023-02-03T05:38:49;101680.22;;;8.83;76.29
6144;BME280;3103;49.492;8.474;2023-02-03T05:41:16;101687.84;;;8.80;76.16
6144;BME280;3103;49.492;8.474;2023-02-03T05:44:01;101687.16;;;8.71;76.93
6144;BME280;3103;49.492;8.474;2023-02-03T05:46:28;101670.91;;;8.73;77.07
6144;BME280;3103;49.492;8.474;2023-02-03T05:48:54;101658.47;;;8.65;77.15
6144;BME280;3103;49.492;8.474;2023-02-03T05:51:21;101649.81;;;8.63;77.56
6144;BME280;3103;49.492;8.474;2023-02-03T05:53:48;101667.97;;;8.68;78.02
6144;BME280;3103;49.492;8.474;2023-02-03T05:56:14;101667.34;;;8.66;78.28
6144;BME280;3103;49.492;8.474;2023-02-03T05:58:41;101665.34;;;8.74;78.82
6144;BME280;3103;49.492;8.474;2023-02-03T06:01:08;101669.47;;;8.77;78.38
6144;BME280;3103;49.492;8.474;2023-02-03T06:03:34;101668.16;;;8.66;78.76
6144;BME280;3103;49.492;8.474;2023-02-03T06:06:01;101657.88;;;8.70;79.05
6144;BME280;3103;49.492;8.474;2023-02-03T06:08:28;101651.69;;;8.69;78.77
6144;BME280;3103;49.492;8.474;2023-02-03T06:10:58;101644.88;;;8.60;78.66
6144;BME280;3103;49.492;8.474;2023-02-03T06:13:26;101636.56;;;8.55;78.82
6144;BME280;3103;49.492;8.474;2023-02-03T06:15:53;101638.28;;;8.62;78.51
6144;BME280;3103;49.492;8.474;2023-02-03T06:18:20;101631.84;;;8.57;78.78
6144;BME280;3103;49.492;8.474;2023-02-03T06:20:46;101633.94;;;8.61;78.40
6144;BME280;3103;49.492;8.474;2023-02-03T06:23:13;101629.97;;;8.51;78.33
6144;BME280;3103;49.492;8.474;2023-02-03T06:25:40;101640.13;;;8.62;77.87
6144;BME280;3103;49.492;8.474;2023-02-03T06:28:06;101619.91;;;8.59;77.81
6144;BME280;3103;49.492;8.474;2023-02-03T06:30:33;101627.56;;;8.62;77.51
6144;BME280;3103;49.492;8.474;2023-02-03T06:33:00;101626.97;;;8.67;77.30
6144;BME280;3103;49.492;8.474;2023-02-03T06:35:26;101621.19;;;8.63;77.18
6144;BME280;3103;49.492;8.474;2023-02-03T06:37:53;101623.66;;;8.72;76.76
6144;BME280;3103;49.492;8.474;2023-02-03T06:40:20;101618.09;;;8.67;77.42
6144;BME280;3103;49.492;8.474;2023-02-03T06:42:47;101626.53;;;8.63;77.05
6144;BME280;3103;49.492;8.474;2023-02-03T06:45:14;101622.41;;;8.61;77.76
6144;BME280;3103;49.492;8.474;2023-02-03T06:47:42;101627.31;;;8.57;77.91
6144;BME280;3103;49.492;8.474;2023-02-03T06:50:11;101632.41;;;8.46;78.34
6144;BME280;3103;49.492;8.474;2023-02-03T06:52:38;101641.00;;;8.41;79.04
6144;BME280;3103;49.492;8.474;2023-02-03T06:55:06;101637.31;;;8.42;79.38
6144;BME280;3103;49.492;8.474;2023-02-03T06:57:33;101639.97;;;8.42;79.55
6144;BME280;3103;49.492;8.474;2023-02-03T07:00:00;101644.16;;;8.45;80.17
6144;BME280;3103;49.492;8.474;2023-02-03T07:02:27;101664.78;;;8.29;82.42
6144;BME280;3103;49.492;8.474;2023-02-03T07:04:53;101652.19;;;8.23;83.33
6144;BME280;3103;49.492;8.474;2023-02-03T07:07:20;101666.63;;;8.29;83.98
6144;BME280;3103;49.492;8.474;2023-02-03T07:09:46;101670.81;;;8.31;84.36
6144;BME280;3103;49.492;8.474;2023-02-03T07:12:13;101666.22;;;8.25;85.36
6144;BME280;3103;49.492;8.474;2023-02-03T07:14:40;101673.19;;;8.20;85.53
6144;BME280;3103;49.492;8.474;2023-02-03T07:17:06;101674.81;;;8.21;86.15
6144;BME280;3103;49.492;8.474;2023-02-03T07:19:33;101677.69;;;8.19;86.13
6144;BME280;3103;49.492;8.474;2023-02-03T07:22:00;101677.63;;;8.13;86.47
6144;BME280;3103;49.492;8.474;2023-02-03T07:24:26;101685.47;;;8.14;87.27
6144;BME280;3103;49.492;8.474;2023-02-03T07:26:53;101677.16;;;8.02;87.42
6144;BME280;3103;49.492;8.474;2023-02-03T07:29:20;101679.25;;;8.07;88.04
6144;BME280;3103;49.492;8.474;2023-02-03T07:31:46;101688.94;;;8.08;88.21
6144;BME280;3103;49.492;8.474;2023-02-03T07:34:13;101690.78;;;8.08;87.79
6144;BME280;3103;49.492;8.474;2023-02-03T07:36:40;101681.91;;;8.07;87.74
6144;BME280;3103;49.492;8.474;2023-02-03T07:39:07;101684.63;;;8.14;87.88
6144;BME280;3103;49.492;8.474;2023-02-03T07:41:33;101702.44;;;8.21;86.88
6144;BME280;3103;49.492;8.474;2023-02-03T07:44:00;101703.69;;;8.25;86.24
6144;BME280;3103;49.492;8.474;2023-02-03T07:46:27;101713.81;;;8.30;86.24
6144;BME280;3103;49.492;8.474;2023-02-03T07:48:54;101706.63;;;8.30;85.52
6144;BME280;3103;49.492;8.474;2023-02-03T07:51:20;101698.03;;;8.35;85.39
6144;BME280;3103;49.492;8.474;2023-02-03T07:53:47;101704.03;;;8.37;85.16
6144;BME280;3103;49.492;8.474;2023-02-03T07:56:14;101697.53;;;8.46;84.08
6144;BME280;3103;49.492;8.474;2023-02-03T07:58:41;101713.38;;;8.48;83.48
6144;BME280;3103;49.492;8.474;2023-02-03T08:01:15;101703.06;;;8.45;83.40
6144;BME280;3103;49.492;8.474;2023-02-03T08:03:42;101701.44;;;8.50;82.79
6144;BME280;3103;49.492;8.474;2023-02-03T08:06:09;101694.88;;;8.53;82.43
6144;BME280;3103;49.492;8.474;2023-02-03T08:08:36;101697.97;;;8.56;81.61
6144;BME280;3103;49.492;8.474;2023-02-03T08:11:02;101701.56;;;8.63;80.82
6144;BME280;3103;49.492;8.474;2023-02-03T08:13:29;101716.41;;;8.66;80.27
6144;BME280;3103;49.492;8.474;2023-02-03T08:15:56;101712.06;;;8.65;79.91
6144;BME280;3103;49.492;8.474;2023-02-03T08:18:23;101709.81;;;8.69;79.21
6144;BME280;3103;49.492;8.474;2023-02-03T08:20:49;101707.72;;;8.64;79.49
6144;BME280;3103;49.492;8.474;2023-02-03T08:23:16;101709.81;;;8.69;78.70
6144;BME280;3103;49.492;8.474;2023-02-03T08:25:43;101710.19;;;8.59;78.52
6144;BME280;3103;49.492;8.474;2023-02-03T08:28:10;101707.72;;;8.64;78.47
6144;BME280;3103;49.492;8.474;2023-02-03T08:30:37;101712.78;;;8.80;77.88
6144;BME280;3103;49.492;8.474;2023-02-03T08:33:05;101709.31;;;8.86;77.31
6144;BME280;3103;49.492;8.474;2023-02-03T08:35:32;101719.16;;;8.79;76.92
6144;BME280;3103;49.492;8.474;2023-02-03T08:37:59;101695.44;;;8.76;76.99
6144;BME280;3103;49.492;8.474;2023-02-03T08:40:26;101696.69;;;8.80;76.61
6144;BME280;3103;49.492;8.474;2023-02-03T08:42:53;101698.59;;;8.86;76.11
6144;BME280;3103;49.492;8.474;2023-02-03T08:45:20;101701.63;;;8.77;76.15
6144;BME280;3103;49.492;8.474;2023-02-03T08:47:46;101692.78;;;8.76;76.18
6144;BME280;3103;49.492;8.474;2023-02-03T08:50:13;101690.66;;;8.72;76.63
6144;BME280;3103;49.492;8.474;2023-02-03T08:52:40;101705.56;;;8.81;76.49
6144;BME280;3103;49.492;8.474;2023-02-03T08:55:08;101707.50;;;8.93;76.44
6144;BME280;3103;49.492;8.474;2023-02-03T08:57:35;101704.19;;;8.91;76.36
6144;BME280;3103;49.492;8.474;2023-02-03T09:00:03;101691.41;;;8.93;76.71
6144;BME280;3103;49.492;8.474;2023-02-03T09:02:31;101686.88;;;8.87;76.83
6144;BME280;3103;49.492;8.474;2023-02-03T09:04:57;101687.72;;;8.95;76.42
6144;BME280;3103;49.492;8.474;2023-02-03T09:07:25;101683.53;;;8.85;76.19
6144;BME280;3103;49.492;8.474;2023-02-03T09:09:51;101694.31;;;8.99;75.60
6144;BME280;3103;49.492;8.474;2023-02-03T09:12:18;101691.50;;;9.07;75.54
6144;BME280;3103;49.492;8.474;2023-02-03T09:14:45;101692.75;;;9.11;75.16
6144;BME280;3103;49.492;8.474;2023-02-03T09:17:11;101693.53;;;9.05;75.52
6144;BME280;3103;49.492;8.474;2023-02-03T09:19:38;101694.56;;;9.04;75.18
6144;BME280;3103;49.492;8.474;2023-02-03T09:22:05;101686.13;;;9.07;75.39
6144;BME280;3103;49.492;8.474;2023-02-03T09:24:32;101682.84;;;9.11;74.97
6144;BME280;3103;49.492;8.474;2023-02-03T09:26:59;101684.22;;;9.01;74.89
6144;BME280;3103;49.492;8.474;2023-02-03T09:29:27;101690.47;;;9.08;74.72
6144;BME280;3103;49.492;8.474;2023-02-03T09:31:53;101686.59;;;9.17;74.24
6144;BME280;3103;49.492;8.474;2023-02-03T09:34:21;101689.47;;;9.15;74.06
6144;BME280;3103;49.492;8.474;2023-02-03T09:36:48;101685.31;;;9.13;74.15
6144;BME280;3103;49.492;8.474;2023-02-03T09:39:15;101686.81;;;9.22;74.06
6144;BME280;3103;49.492;8.474;2023-02-03T09:41:49;101676.34;;;9.40;73.42
6144;BME280;3103;49.492;8.474;2023-02-03T09:47:26;101687.84;;;9.28;73.42
6144;BME280;3103;49.492;8.474;2023-02-03T09:49:59;101702.75;;;9.30;73.13
6144;BME280;3103;49.492;8.474;2023-02-03T09:52:35;101693.88;;;9.36;72.87
6144;BME280;3103;49.492;8.474;2023-02-03T09:55:26;101693.88;;;9.30;73.05
6144;BME280;3103;49.492;8.474;2023-02-03T10:00:38;101679.66;;;9.36;72.88
6144;BME280;3103;49.492;8.474;2023-02-03T10:03:12;101689.09;;;9.25;73.65
6144;BME280;3103;49.492;8.474;2023-02-03T10:05:48;101689.97;;;9.32;73.70
6144;BME280;3103;49.492;8.474;2023-02-03T10:08:59;101695.75;;;9.42;73.67
6144;BME280;3103;49.492;8.474;2023-02-03T10:16:53;101699.47;;;9.41;73.58
6144;BME280;3103;49.492;8.474;2023-02-03T10:19:37;101703.13;;;9.27;74.42
6144;BME280;3103;49.492;8.474;2023-02-03T10:22:12;101694.91;;;9.35;74.08
6144;BME280;3103;49.492;8.474;2023-02-03T10:24:55;101704.03;;;9.47;73.46
6144;BME280;3103;49.492;8.474;2023-02-03T10:27:24;101686.91;;;9.48;73.55
6144;BME280;3103;49.492;8.474;2023-02-03T10:30:15;101678.47;;;9.51;73.18
6144;BME280;3103;49.492;8.474;2023-02-03T10:32:44;101687.91;;;9.41;73.74
6144;BME280;3103;49.492;8.474;2023-02-03T10:35:11;101691.81;;;9.32;73.99
6144;BME280;3103;49.492;8.474;2023-02-03T10:37:44;101684.19;;;9.35;74.09
6144;BME280;3103;49.492;8.474;2023-02-03T10:40:14;101673.47;;;9.42;74.16
6144;BME280;3103;49.492;8.474;2023-02-03T10:42:43;101657.78;;;9.32;74.46
6144;BME280;3103;49.492;8.474;2023-02-03T10:45:35;101675.66;;;9.18;75.57
6144;BME280;3103;49.492;8.474;2023-02-03T10:48:04;101673.63;;;9.27;75.63
6144;BME280;3103;49.492;8.474;2023-02-03T10:50:33;101669.75;;;9.36;76.42
6144;BME280;3103;49.492;8.474;2023-02-03T10:53:33;101656.53;;;9.35;76.74
6144;BME280;3103;49.492;8.474;2023-02-03T10:56:07;101657.16;;;9.37;76.76
6144;BME280;3103;49.492;8.474;2023-02-03T10:58:36;101640.25;;;9.43;76.69
6144;BME280;3103;49.492;8.474;2023-02-03T11:01:12;101640.06;;;9.51;76.09
6144;BME280;3103;49.492;8.474;2023-02-03T11:03:42;101644.22;;;9.60;75.52
6144;BME280;3103;49.492;8.474;2023-02-03T11:06:15;101640.31;;;9.63;75.38
6144;BME280;3103;49.492;8.474;2023-02-03T11:08:45;101637.84;;;9.61;75.48
6144;BME280;3103;49.492;8.474;2023-02-03T11:11:18;101631.03;;;9.59;75.18
6144;BME280;3103;49.492;8.474;2023-02-03T11:16:29;101637.81;;;9.55;75.03
6144;BME280;3103;49.492;8.474;2023-02-03T11:19:18;101639.25;;;9.44;74.92
6144;BME280;3103;49.492;8.474;2023-02-03T11:21:51;101630.16;;;9.51;74.34
6144;BME280;3103;49.492;8.474;2023-02-03T11:24:24;101629.13;;;9.52;74.17
6144;BME280;3103;49.492;8.474;2023-02-03T11:29:31;101627.91;;;9.55;73.30
6144;BME280;3103;49.492;8.474;2023-02-03T11:32:32;101641.31;;;9.55;73.64
6144;BME280;3103;49.492;8.474;2023-02-03T11:35:12;101648.78;;;9.60;73.33
6144;BME280;3103;49.492;8.474;2023-02-03T11:37:42;101661.16;;;9.67;72.69
6144;BME280;3103;49.492;8.474;2023-02-03T11:40:31;101675.84;;;9.71;72.65
6144;BME280;3103;49.492;8.474;2023-02-03T11:43:01;101674.16;;;9.70;72.41
6144;BME280;3103;49.492;8.474;2023-02-03T11:45:43;101670.84;;;9.62;71.90
6144;BME280;3103;49.492;8.474;2023-02-03T11:48:21;101672.50;;;9.63;71.87
6144;BME280;3103;49.492;8.474;2023-02-03T12:02:45;101653.44;;;9.38;73.00
6144;BME280;3103;49.492;8.474;2023-02-03T12:05:31;101649.72;;;9.39;72.95
6144;BME280;3103;49.492;8.474;2023-02-03T12:11:48;101630.34;;;9.30;73.80
6144;BME280;3103;49.492;8.474;2023-02-03T12:17:19;101624.97;;;9.30;74.10
6144;BME280;3103;49.492;8.474;2023-02-03T12:22:49;101605.13;;;9.25;75.00
6144;BME280;3103;49.492;8.474;2023-02-03T12:31:16;101570.09;;;9.33;75.13
6144;BME280;3103;49.492;8.474;2023-02-03T12:33:53;101586.81;;;9.41;74.97
6144;BME280;3103;49.492;8.474;2023-02-03T12:39:17;101605.22;;;9.58;74.24
6144;BME280;3103;49.492;8.474;2023-02-03T12:41:49;101600.00;;;9.43;74.77
6144;BME280;3103;49.492;8.474;2023-02-03T12:44:22;101598.38;;;9.48;74.94
6144;BME280;3103;49.492;8.474;2023-02-03T12:47:05;101583.53;;;9.52;74.59
6144;BME280;3103;49.492;8.474;2023-02-03T12:49:42;101592.41;;;9.46;74.97
6144;BME280;3103;49.492;8.474;2023-02-03T12:52:35;101584.38;;;9.60;75.21
6144;BME280;3103;49.492;8.474;2023-02-03T12:55:17;101572.56;;;9.41;75.17
6144;BME280;3103;49.492;8.474;2023-02-03T12:57:55;101564.53;;;9.41;75.65
6144;BME280;3103;49.492;8.474;2023-02-03T13:00:53;101565.56;;;9.33;75.80
6144;BME280;3103;49.492;8.474;2023-02-03T13:03:40;101552.16;;;9.46;75.30
6144;BME280;3103;49.492;8.474;2023-02-03T13:06:19;101544.13;;;9.60;75.16
6144;BME280;3103;49.492;8.474;2023-02-03T13:08:53;101548.84;;;9.51;75.33
6144;BME280;3103;49.492;8.474;2023-02-03T13:11:39;101541.00;;;9.49;75.56
6144;BME280;3103;49.492;8.474;2023-02-03T13:14:19;101537.72;;;9.61;75.33
6144;BME280;3103;49.492;8.474;2023-02-03T13:16:59;101538.75;;;9.66;75.29
6144;BME280;3103;49.492;8.474;2023-02-03T13:19:36;101544.31;;;9.45;75.52
6144;BME280;3103;49.492;8.474;2023-02-03T13:22:11;101545.75;;;9.54;75.87
6144;BME280;3103;49.492;8.474;2023-02-03T13:24:42;101547.63;;;9.53;75.83
6144;BME280;3103;49.492;8.474;2023-02-03T13:30:14;101562.06;;;9.46;76.97
6144;BME280;3103;49.492;8.474;2023-02-03T13:33:06;101551.72;;;9.43;76.54
6144;BME280;3103;49.492;8.474;2023-02-03T13:41:10;101548.88;;;9.44;76.69
6144;BME280;3103;49.492;8.474;2023-02-03T13:43:49;101542.47;;;9.45;76.40
6144;BME280;3103;49.492;8.474;2023-02-03T13:46:25;101545.56;;;9.49;75.92
6144;BME280;3103;49.492;8.474;2023-02-03T13:48:53;101537.09;;;9.45;76.32
6144;BME280;3103;49.492;8.474;2023-02-03T13:51:27;101520.38;;;9.37;76.14
6144;BME280;3103;49.492;8.474;2023-02-03T13:54:03;101524.72;;;9.51;76.04
6144;BME280;3103;49.492;8.474;2023-02-03T13:56:31;101526.34;;;9.52;75.73
6144;BME280;3103;49.492;8.474;2023-02-03T14:01:40;101544.09;;;9.40;76.39
6144;BME280;3103;49.492;8.474;2023-02-03T14:07:00;101561.25;;;9.52;75.86
6144;BME280;3103;49.492;8.474;2023-02-03T14:12:18;101575.03;;;9.42;76.19
6144;BME280;3103;49.492;8.474;2023-02-03T14:20:02;101588.91;;;9.46;76.88
6144;BME280;3103;49.492;8.474;2023-02-03T14:22:29;101583.34;;;9.61;76.74
6144;BME280;3103;49.492;8.474;2023-02-03T14:25:03;101582.72;;;9.59;76.54
6144;BME280;3103;49.492;8.474;2023-02-03T14:27:31;101586.44;;;9.58;76.80
6144;BME280;3103;49.492;8.474;2023-02-03T14:30:09;101569.50;;;9.50;76.91
6144;BME280;3103;49.492;8.474;2023-02-03T14:32:54;101550.91;;;9.42;77.54
6144;BME280;3103;49.492;8.474;2023-02-03T14:35:39;101555.84;;;9.39;77.97
6144;BME280;3103;49.492;8.474;2023-02-03T14:38:12;101565.34;;;9.41;78.19
6144;BME280;3103;49.492;8.474;2023-02-03T14:40:50;101565.34;;;9.35;78.47
6144;BME280;3103;49.492;8.474;2023-02-03T14:43:34;101551.94;;;9.35;78.64
6144;BME280;3103;49.492;8.474;2023-02-03T14:46:20;101561.00;;;9.27;79.39
6144;BME280;3103;49.492;8.474;2023-02-03T14:49:12;101557.91;;;9.30;79.54
6144;BME280;3103;49.492;8.474;2023-02-03T14:51:55;101557.91;;;9.30;79.54
6144;BME280;3103;49.492;8.474;2023-02-03T14:57:22;101553.16;;;9.26;80.40
6144;BME280;3103;49.492;8.474;2023-02-03T14:59:57;101547.59;;;9.34;80.20
6144;BME280;3103;49.492;8.474;2023-02-03T15:02:29;101555.06;;;9.45;79.86
6144;BME280;3103;49.492;8.474;2023-02-03T15:07:43;101556.28;;;9.29;80.79
6144;BME280;3103;49.492;8.474;2023-02-03T15:12:56;101557.47;;;9.27;81.10
6144;BME280;3103;49.492;8.474;2023-02-03T15:15:29;101569.84;;;9.28;81.17
6144;BME280;3103;49.492;8.474;2023-02-03T15:17:59;101572.94;;;9.25;81.19
6144;BME280;3103;49.492;8.474;2023-02-03T15:20:33;101569.44;;;9.24;81.61
6144;BME280;3103;49.492;8.474;2023-02-03T15:23:01;101555.22;;;9.23;81.49